Fsl New York — 9VBQ8 — position and weather

sailwx.info

Track history (hours):
 
Tides and Currents Weather Stations Pressure Air Temp Water Temp Dewpoint Dewpoint Depression Visibility Wind Speed Wind Dir Waves Ship Positions

Fsl New York

Last reported at 2017-Apr-29 18:12 UTC. Time now 2017-Apr-30 18:54 UTC.
Position N 51°17' E 004°14'.

Length 145 m; draft 9.2 m.

Type: Tanker. MMSI: 565174000.

Date/timePositionNaut miles runAvg speedWind from/ knotsBaromVisibWave heightAir tempDewpointWater temp
2017-Apr-29 18:12N 51°17' E 004°14'0 0.3
2017-Apr-29 18:00N 51°17' E 004°14'2 3.6
2017-Apr-29 17:30N 51°16' E 004°16'0 0.8
2017-Apr-29 17:00N 51°16' E 004°17'0 0.0
2017-Apr-29 16:30N 51°16' E 004°17'1 2.1
2017-Apr-29 16:00N 51°16' E 004°18'4 7.0
2017-Apr-29 15:30N 51°20' E 004°16'1 2.6
2017-Apr-29 15:00N 51°21' E 004°17'0 0.2
2017-Apr-29 14:00N 51°21' E 004°17'1 1.8
2017-Apr-29 13:30N 51°22' E 004°17'0 0.0
2017-Apr-29 13:00N 51°22' E 004°17'0 0.0
2017-Apr-27 15:54N 51°22' E 004°17'1 2.0
2017-Apr-27 15:30N 51°21' E 004°18'0 0.8
2017-Apr-27 15:01N 51°21' E 004°17'0 0.0
2017-Apr-27 14:00N 51°21' E 004°17'0 0.0
2017-Apr-27 13:30N 51°21' E 004°17'0 0.3
2017-Apr-27 13:00N 51°21' E 004°17'3 5.2
2017-Apr-27 12:28N 51°22' E 004°13'4 8.7
2017-Apr-27 12:01N 51°22' E 004°07'6 8.8
2017-Apr-27 11:19N 51°25' E 003°58'412.9
2017-Apr-27 11:00N 51°21' E 003°54'612.0
2017-Apr-27 10:30N 51°22' E 003°44'610.4
2017-Apr-27 09:57N 51°26' E 003°38'511.0
2017-Apr-27 09:30N 51°25' E 003°30'612.5
2017-Apr-27 09:00N 51°24' E 003°20'611.6
2017-Apr-27 08:30N 51°24' E 003°11'510.5
2017-Apr-27 08:00N 51°24' E 003°02'510.3
2017-Apr-27 07:31N 51°22' E 002°55'510.7
2017-Apr-27 07:01N 51°22' E 002°46'4 7.2
2017-Apr-27 06:31N 51°22' E 002°40'2 4.1
2017-Apr-27 06:00N 51°22' E 002°37'510.1
2017-Apr-27 05:31N 51°22' E 002°29'611.1
2017-Apr-27 05:01N 51°20' E 002°21'712.8
2017-Apr-27 04:29N 51°16' E 002°12'613.2
2017-Apr-27 04:01N 51°13' E 002°03'713.5
2017-Apr-27 03:30N 51°10' E 001°53'713.8
2017-Apr-27 03:00N 51°06' E 001°44'714.4
2017-Apr-27 02:30N 51°02' E 001°36'714.7
2017-Apr-27 02:00N 50°56' E 001°27'6312.9
2017-Apr-26 21:09N 50°20' E 000°06'315.0
2017-Apr-26 20:58N 50°20' E 000°02'715.2
2017-Apr-26 20:30N 50°18' W 000°09'  
Track history (hours):
 
Tides and Currents Weather Stations Pressure Air Temp Water Temp Dewpoint Dewpoint Depression Visibility Wind Speed Wind Dir Waves Ship Positions

Fsl New York

Last reported at 2017-Apr-29 18:12 UTC. Time now 2017-Apr-30 18:54 UTC.
Position N 51°17' E 004°14'.

Length 145 m; draft 9.2 m.

Type: Tanker. MMSI: 565174000.

Date/timePositionNaut miles runAvg speedWind from/ knotsBaromVisibWave heightAir tempDewpointWater temp
2017-Apr-29 18:12N 51°17' E 004°14'0 0.3
2017-Apr-29 18:00N 51°17' E 004°14'2 3.6
2017-Apr-29 17:30N 51°16' E 004°16'0 0.8
2017-Apr-29 17:00N 51°16' E 004°17'0 0.0
2017-Apr-29 16:30N 51°16' E 004°17'1 2.1
2017-Apr-29 16:00N 51°16' E 004°18'4 7.0
2017-Apr-29 15:30N 51°20' E 004°16'1 2.6
2017-Apr-29 15:00N 51°21' E 004°17'0 0.2
2017-Apr-29 14:00N 51°21' E 004°17'1 1.8
2017-Apr-29 13:30N 51°22' E 004°17'0 0.0
2017-Apr-29 13:00N 51°22' E 004°17'0 0.0
2017-Apr-27 15:54N 51°22' E 004°17'1 2.0
2017-Apr-27 15:30N 51°21' E 004°18'0 0.8
2017-Apr-27 15:01N 51°21' E 004°17'0 0.0
2017-Apr-27 14:00N 51°21' E 004°17'0 0.0
2017-Apr-27 13:30N 51°21' E 004°17'0 0.3
2017-Apr-27 13:00N 51°21' E 004°17'3 5.2
2017-Apr-27 12:28N 51°22' E 004°13'4 8.7
2017-Apr-27 12:01N 51°22' E 004°07'6 8.8
2017-Apr-27 11:19N 51°25' E 003°58'412.9
2017-Apr-27 11:00N 51°21' E 003°54'612.0
2017-Apr-27 10:30N 51°22' E 003°44'610.4
2017-Apr-27 09:57N 51°26' E 003°38'511.0
2017-Apr-27 09:30N 51°25' E 003°30'612.5
2017-Apr-27 09:00N 51°24' E 003°20'611.6
2017-Apr-27 08:30N 51°24' E 003°11'510.5
2017-Apr-27 08:00N 51°24' E 003°02'510.3
2017-Apr-27 07:31N 51°22' E 002°55'510.7
2017-Apr-27 07:01N 51°22' E 002°46'4 7.2
2017-Apr-27 06:31N 51°22' E 002°40'2 4.1
2017-Apr-27 06:00N 51°22' E 002°37'510.1
2017-Apr-27 05:31N 51°22' E 002°29'611.1
2017-Apr-27 05:01N 51°20' E 002°21'712.8
2017-Apr-27 04:29N 51°16' E 002°12'613.2
2017-Apr-27 04:01N 51°13' E 002°03'713.5
2017-Apr-27 03:30N 51°10' E 001°53'713.8
2017-Apr-27 03:00N 51°06' E 001°44'714.4
2017-Apr-27 02:30N 51°02' E 001°36'714.7
2017-Apr-27 02:00N 50°56' E 001°27'6312.9
2017-Apr-26 21:09N 50°20' E 000°06'315.0
2017-Apr-26 20:58N 50°20' E 000°02'715.2
2017-Apr-26 20:30N 50°18' W 000°09'  

Dump ship's entire track history